Time;durP1;ratioP1;P1;durP2;ratioP2;P2;SDS_P1;SDS_P2;PMS_P1;PMS_P2;Temp;Humidity;BMP_temperature;BMP_pressure;BME280_temperature;BME280_humidity;BME280_pressure;Samples;Min_cycle;Max_cycle;Signal;HPM_P1;HPM_P2
2021/12/25 00:02:08;;;;;;;;;;;;;;;-1.11;78.42;95122.53;5114952;28;1043;-45
2021/12/25 00:04:34;;;;;;;;;;;;;;;-1.13;78.20;95116.53;5114913;28;1056;-46
2021/12/25 00:07:01;;;;;;;;;;;;;;;-1.19;78.73;95109.03;5114820;28;1086;-47
2021/12/25 00:09:27;;;;;;;;;;;;;;;-1.12;78.84;95118.25;5114894;28;984;-47
2021/12/25 00:11:53;;;;;;;;;;;;;;;-1.20;78.91;95104.72;5114675;28;1157;-47
2021/12/25 00:14:21;;;;;;;;;;;;;;;-1.10;78.06;95107.63;5114568;28;1919;-47
2021/12/25 00:16:47;;;;;;;;;;;;;;;-1.23;78.02;95112.78;5114652;28;1027;-47
2021/12/25 00:19:13;;;;;;;;;;;;;;;-1.32;78.65;95123.81;5114544;28;1942;-47
2021/12/25 00:21:39;;;;;;;;;;;;;;;-1.26;78.98;95107.72;5114669;28;1028;-47
2021/12/25 00:24:06;;;;;;;;;;;;;;;-1.14;78.83;95109.59;5114891;28;1067;-47
2021/12/25 00:27:11;;;;;;;;;;;;;;;-0.98;78.80;95102.50;5114572;28;1841;-46
2021/12/25 00:29:37;;;;;;;;;;;;;;;-1.07;77.57;95105.66;5112375;28;1506;-47
2021/12/25 00:34:36;;;;;;;;;;;;;;;-1.30;78.25;95107.03;5114220;28;2004;-47
2021/12/25 00:37:03;;;;;;;;;;;;;;;-1.36;78.61;95109.19;5114367;28;1935;-46
2021/12/25 00:39:30;;;;;;;;;;;;;;;-1.28;78.64;95120.06;5114082;28;1019;-46
2021/12/25 00:41:57;;;;;;;;;;;;;;;-1.34;78.63;95115.19;5114391;28;992;-47
2021/12/25 00:44:23;;;;;;;;;;;;;;;-1.35;78.25;95129.22;5113761;28;980;-47
2021/12/25 00:46:50;;;;;;;;;;;;;;;-1.46;78.82;95132.47;5114168;28;957;-46
2021/12/25 00:49:16;;;;;;;;;;;;;;;-1.38;78.87;95131.09;5114242;28;972;-47
2021/12/25 00:51:42;;;;;;;;;;;;;;;-1.33;78.86;95130.81;5114440;28;1043;-46
2021/12/25 00:54:09;;;;;;;;;;;;;;;-1.29;78.94;95132.34;5113943;28;1917;-47
2021/12/25 00:56:35;;;;;;;;;;;;;;;-1.24;78.75;95137.31;5114161;28;999;-47
2021/12/25 00:59:01;;;;;;;;;;;;;;;-1.14;79.00;95132.38;5113835;28;1233;-47
2021/12/25 01:01:27;;;;;;;;;;;;;;;-1.12;79.06;95133.13;5113953;28;984;-47
2021/12/25 01:03:53;;;;;;;;;;;;;;;-1.11;78.12;95137.44;5113780;28;1063;-46
2021/12/25 01:06:19;;;;;;;;;;;;;;;-1.20;78.03;95123.09;5114117;28;1281;-47
2021/12/25 01:08:46;;;;;;;;;;;;;;;-1.34;78.94;95120.44;5113753;28;1031;-47
2021/12/25 01:11:12;;;;;;;;;;;;;;;-1.25;79.61;95125.13;5113889;28;1066;-47
2021/12/25 01:13:45;;;;;;;;;;;;;;;-1.07;79.08;95120.59;5113632;28;1121;-46
2021/12/25 01:30:06;;;;;;;;;;;;;;;-1.48;78.86;95124.72;5113577;28;991;-46
2021/12/25 01:38:00;;;;;;;;;;;;;;;-1.66;77.12;95138.88;5113634;28;1012;-46
2021/12/25 01:48:39;;;;;;;;;;;;;;;-1.81;78.99;95109.97;5113887;28;1035;-47
2021/12/25 01:51:05;;;;;;;;;;;;;;;-1.79;79.30;95107.25;5113271;28;1882;-47
2021/12/25 01:53:32;;;;;;;;;;;;;;;-1.61;79.50;95093.09;5113397;28;1075;-46
2021/12/25 01:56:01;;;;;;;;;;;;;;;-1.46;79.23;95101.00;5113424;28;1906;-47
2021/12/25 01:58:27;;;;;;;;;;;;;;;-1.40;79.18;95096.25;5117624;28;1024;-46
2021/12/25 02:00:55;;;;;;;;;;;;;;;-1.43;78.92;95098.22;5117335;28;1059;-46
2021/12/25 02:03:22;;;;;;;;;;;;;;;-1.49;78.81;95091.53;5117681;28;964;-46
2021/12/25 02:05:49;;;;;;;;;;;;;;;-1.31;78.55;95091.38;5117420;27;1036;-46
2021/12/25 02:08:15;;;;;;;;;;;;;;;-1.26;78.84;95092.81;5117419;28;1051;-46
2021/12/25 02:10:41;;;;;;;;;;;;;;;-1.57;78.21;95086.75;5117057;28;936;-46
2021/12/25 02:13:09;;;;;;;;;;;;;;;-1.40;79.61;95091.00;5117505;28;1230;-47
2021/12/25 02:15:36;;;;;;;;;;;;;;;-1.24;79.20;95092.72;5117003;28;1910;-47
2021/12/25 02:20:37;;;;;;;;;;;;;;;-1.29;78.29;95086.88;5116862;28;1009;-46
2021/12/25 02:23:16;;;;;;;;;;;;;;;-1.24;78.39;95097.97;5117056;28;1047;-46
2021/12/25 02:25:43;;;;;;;;;;;;;;;-1.45;78.31;95098.28;5117012;28;960;-47
2021/12/25 02:28:10;;;;;;;;;;;;;;;-1.48;78.24;95098.50;5117090;27;1044;-46
2021/12/25 02:30:36;;;;;;;;;;;;;;;-1.43;79.17;95106.91;5117027;28;1125;-47
2021/12/25 02:33:03;;;;;;;;;;;;;;;-1.48;79.46;95108.97;5116786;28;1082;-47
2021/12/25 02:35:30;;;;;;;;;;;;;;;-1.23;79.01;95099.66;5116428;28;1982;-47
2021/12/25 02:37:57;;;;;;;;;;;;;;;-1.15;78.98;95107.09;5116911;28;963;-46
2021/12/25 02:40:23;;;;;;;;;;;;;;;-1.29;78.72;95102.63;5116848;28;1044;-47
2021/12/25 02:42:49;;;;;;;;;;;;;;;-1.44;79.15;95113.09;5116760;28;969;-47
2021/12/25 02:45:18;;;;;;;;;;;;;;;-1.38;79.88;95102.25;5116566;28;996;-47
2021/12/25 02:47:46;;;;;;;;;;;;;;;-1.31;79.83;95104.50;5116506;28;1071;-46
2021/12/25 02:50:13;;;;;;;;;;;;;;;-1.28;79.13;95099.09;5116346;28;980;-47
2021/12/25 02:52:39;;;;;;;;;;;;;;;-1.21;78.83;95103.88;5116536;28;1026;-47
2021/12/25 02:55:06;;;;;;;;;;;;;;;-1.27;78.89;95090.25;5116416;28;1909;-46
2021/12/25 02:57:32;;;;;;;;;;;;;;;-1.41;79.21;95084.06;5116118;28;1875;-47
2021/12/25 02:59:58;;;;;;;;;;;;;;;-1.49;79.91;95098.56;5116378;27;1052;-46
2021/12/25 03:02:24;;;;;;;;;;;;;;;-1.54;80.05;95105.84;5116143;28;1014;-47
2021/12/25 03:04:50;;;;;;;;;;;;;;;-1.50;80.40;95100.34;5116081;28;1016;-46
2021/12/25 03:07:17;;;;;;;;;;;;;;;-1.39;80.04;95097.09;5115819;28;1066;-47
2021/12/25 03:09:43;;;;;;;;;;;;;;;-1.48;79.53;95105.50;5116642;28;1043;-46
2021/12/25 03:12:12;;;;;;;;;;;;;;;-1.45;79.56;95100.91;5115977;28;1161;-45
2021/12/25 03:15:01;;;;;;;;;;;;;;;-1.42;79.05;95124.34;5115894;28;1918;-47
2021/12/25 03:17:27;;;;;;;;;;;;;;;-1.31;78.92;95109.75;5115792;28;1066;-47
2021/12/25 03:19:55;;;;;;;;;;;;;;;-1.30;79.15;95119.31;5115864;28;1024;-46
2021/12/25 03:22:21;;;;;;;;;;;;;;;-1.55;78.90;95105.03;5115866;28;1019;-47
2021/12/25 03:24:47;;;;;;;;;;;;;;;-1.64;79.85;95113.41;5115751;28;1024;-47
2021/12/25 03:27:14;;;;;;;;;;;;;;;-1.51;79.57;95114.38;5115698;27;1044;-46
2021/12/25 03:29:42;;;;;;;;;;;;;;;-1.32;79.16;95103.66;5116053;27;1014;-47
2021/12/25 03:32:08;;;;;;;;;;;;;;;-1.36;79.46;95111.81;5115424;28;980;-47
2021/12/25 03:34:35;;;;;;;;;;;;;;;-1.43;79.58;95114.78;5115747;28;2003;-47
2021/12/25 03:37:01;;;;;;;;;;;;;;;-1.40;79.87;95113.78;5115415;28;971;-46
2021/12/25 03:39:27;;;;;;;;;;;;;;;-1.43;79.64;95113.94;5115816;28;1044;-46
2021/12/25 03:41:55;;;;;;;;;;;;;;;-1.47;79.77;95118.50;5115549;28;1047;-47
2021/12/25 03:44:20;;;;;;;;;;;;;;;-1.38;79.80;95119.78;5115411;28;1034;-46
2021/12/25 03:46:47;;;;;;;;;;;;;;;-1.21;79.49;95119.63;5115156;28;1846;-46
2021/12/25 03:53:06;;;;;;;;;;;;;;;-1.12;79.73;95126.13;5115571;28;984;-46
2021/12/25 04:00:05;;;;;;;;;;;;;;;-1.33;80.70;95127.34;5115251;28;951;-46
2021/12/25 04:02:50;;;;;;;;;;;;;;;-1.19;80.82;95124.78;5115025;28;1043;-46
2021/12/25 04:05:18;;;;;;;;;;;;;;;-1.12;80.51;95120.88;5115033;28;1063;-47
2021/12/25 04:10:22;;;;;;;;;;;;;;;-0.96;80.55;95126.03;5115149;28;976;-46
2021/12/25 04:12:49;;;;;;;;;;;;;;;-1.03;80.49;95130.78;5114658;28;1157;-47
2021/12/25 04:15:15;;;;;;;;;;;;;;;-0.94;80.11;95134.66;5114623;28;1992;-47
2021/12/25 04:17:41;;;;;;;;;;;;;;;-0.86;79.71;95131.56;5114902;28;999;-47
2021/12/25 04:20:07;;;;;;;;;;;;;;;-0.88;80.46;95129.03;5113933;28;1864;-47
2021/12/25 04:22:43;;;;;;;;;;;;;;;-0.76;80.48;95134.47;5114722;28;1007;-47
2021/12/25 04:25:10;;;;;;;;;;;;;;;-0.69;80.11;95147.13;5114669;28;1259;-47
2021/12/25 04:27:37;;;;;;;;;;;;;;;-0.71;80.47;95140.31;5114563;28;964;-47
2021/12/25 04:30:18;;;;;;;;;;;;;;;-0.79;80.54;95140.78;5114778;28;1010;-46
2021/12/25 05:03:04;;;;;;;;;;;;;;;-0.77;80.53;95148.56;5114055;28;1035;-47
2021/12/25 05:05:17;;;;;;;;;;;;;;;-0.80;80.64;95160.06;5113054;27;1486;-46
2021/12/25 05:07:44;;;;;;;;;;;;;;;-0.69;80.04;95144.50;5113859;28;995;-46
2021/12/25 05:10:10;;;;;;;;;;;;;;;-0.70;80.34;95145.47;5113826;28;1032;-47
2021/12/25 05:12:36;;;;;;;;;;;;;;;-0.68;80.20;95159.34;5114101;28;1224;-46
2021/12/25 05:15:02;;;;;;;;;;;;;;;-0.67;80.06;95155.78;5113501;28;1917;-46
2021/12/25 05:17:28;;;;;;;;;;;;;;;-0.48;79.31;95142.34;5113874;28;1070;-47
2021/12/25 05:19:55;;;;;;;;;;;;;;;-0.53;79.58;95149.69;5113863;28;1022;-46
2021/12/25 05:22:22;;;;;;;;;;;;;;;-0.62;80.04;95158.97;5113814;28;1035;-47
2021/12/25 05:24:48;;;;;;;;;;;;;;;-0.61;80.50;95158.03;5113479;28;1087;-47
2021/12/25 05:27:15;;;;;;;;;;;;;;;-0.56;80.40;95163.00;5114032;28;1059;-46
2021/12/25 05:29:45;;;;;;;;;;;;;;;-0.56;80.57;95168.25;5113602;28;1973;-46
2021/12/25 05:32:12;;;;;;;;;;;;;;;-0.51;80.52;95178.47;5117651;28;964;-46
2021/12/25 05:34:38;;;;;;;;;;;;;;;-0.38;80.08;95158.41;5117982;27;1999;-46
2021/12/25 05:37:04;;;;;;;;;;;;;;;-0.40;80.04;95150.63;5118044;28;1293;-46
2021/12/25 05:39:31;;;;;;;;;;;;;;;-0.41;80.18;95151.56;5117607;28;1039;-46
2021/12/25 05:41:58;;;;;;;;;;;;;;;-0.30;79.76;95150.06;5117769;28;1039;-46
2021/12/25 05:44:25;;;;;;;;;;;;;;;-0.23;79.61;95157.47;5117581;28;1043;-46
2021/12/25 05:46:51;;;;;;;;;;;;;;;-0.26;80.13;95160.28;5117975;28;979;-46
2021/12/25 05:49:17;;;;;;;;;;;;;;;-0.24;80.66;95157.56;5117527;28;1016;-47
2021/12/25 05:51:43;;;;;;;;;;;;;;;-0.18;80.33;95153.72;5117543;28;983;-47
2021/12/25 05:54:09;;;;;;;;;;;;;;;-0.14;80.31;95156.03;5117280;27;1992;-46
2021/12/25 05:56:35;;;;;;;;;;;;;;;-0.29;80.73;95165.72;5117754;28;1059;-47
2021/12/25 05:59:01;;;;;;;;;;;;;;;-0.31;80.88;95179.91;5117543;28;1194;-47
2021/12/25 06:01:28;;;;;;;;;;;;;;;-0.21;80.80;95163.47;5117523;28;969;-46
2021/12/25 06:03:54;;;;;;;;;;;;;;;-0.16;80.67;95157.91;5117466;28;1305;-45
2021/12/25 06:06:20;;;;;;;;;;;;;;;-0.22;80.60;95169.66;5117314;28;1039;-46
2021/12/25 06:08:46;;;;;;;;;;;;;;;-0.18;80.81;95164.22;5117067;28;1043;-45
2021/12/25 06:11:12;;;;;;;;;;;;;;;-0.04;80.17;95169.44;5117398;28;1153;-47
2021/12/25 06:13:45;;;;;;;;;;;;;;;0.05;79.96;95168.88;5117044;28;1102;-47
2021/12/25 06:16:10;;;;;;;;;;;;;;;-0.03;80.36;95168.50;5117014;28;1910;-47
2021/12/25 06:18:36;;;;;;;;;;;;;;;-0.08;80.73;95175.84;5117223;28;1082;-46
2021/12/25 06:21:02;;;;;;;;;;;;;;;-0.05;81.01;95175.66;5116764;28;1081;-46
2021/12/25 06:23:30;;;;;;;;;;;;;;;-0.04;81.22;95180.81;5117223;28;1066;-46
2021/12/25 06:25:57;;;;;;;;;;;;;;;0.20;80.23;95174.94;5117013;28;1150;-47
2021/12/25 06:28:23;;;;;;;;;;;;;;;0.25;79.60;95180.75;5117206;28;1066;-46
2021/12/25 06:30:49;;;;;;;;;;;;;;;0.18;79.89;95188.19;5116580;28;1885;-47
2021/12/25 06:33:15;;;;;;;;;;;;;;;0.17;80.09;95188.28;5116977;28;1075;-47
2021/12/25 06:35:41;;;;;;;;;;;;;;;0.14;80.51;95191.13;5116420;28;1910;-45
2021/12/25 06:38:07;;;;;;;;;;;;;;;0.21;80.24;95194.19;5116635;28;1644;-46
2021/12/25 06:40:33;;;;;;;;;;;;;;;0.35;80.02;95195.00;5116893;28;1063;-46
2021/12/25 06:43:01;;;;;;;;;;;;;;;0.35;79.78;95204.69;5116147;28;1038;-46
2021/12/25 06:45:27;;;;;;;;;;;;;;;0.56;79.11;95197.19;5116457;28;1892;-47
2021/12/25 06:47:53;;;;;;;;;;;;;;;0.68;78.39;95195.56;5116789;28;993;-47
2021/12/25 06:50:20;;;;;;;;;;;;;;;0.74;78.36;95189.88;5116493;28;991;-47
2021/12/25 06:52:46;;;;;;;;;;;;;;;0.67;78.60;95186.81;5116405;28;1003;-46
2021/12/25 06:55:12;;;;;;;;;;;;;;;0.62;79.03;95191.53;5116417;28;1909;-47
2021/12/25 06:57:45;;;;;;;;;;;;;;;0.84;78.18;95198.88;5116556;28;999;-45
2021/12/25 07:00:12;;;;;;;;;;;;;;;0.83;78.14;95205.06;5116474;28;1010;-47
2021/12/25 07:02:38;;;;;;;;;;;;;;;1.05;77.57;95212.41;5116405;28;1027;-46
2021/12/25 07:05:04;;;;;;;;;;;;;;;1.16;77.12;95214.34;5115808;28;1087;-46
2021/12/25 07:07:30;;;;;;;;;;;;;;;1.04;77.10;95212.50;5116429;27;984;-47
2021/12/25 07:09:56;;;;;;;;;;;;;;;1.59;76.02;95210.56;5116181;28;1043;-47
2021/12/25 07:12:24;;;;;;;;;;;;;;;2.04;73.97;95205.69;5116266;28;1220;-46
2021/12/25 07:14:50;;;;;;;;;;;;;;;1.68;74.58;95204.69;5115619;28;1909;-46
2021/12/25 07:17:16;;;;;;;;;;;;;;;1.51;74.94;95216.38;5116260;27;1060;-47
2021/12/25 07:19:43;;;;;;;;;;;;;;;1.28;75.89;95218.75;5115712;28;1055;-47
2021/12/25 07:22:09;;;;;;;;;;;;;;;1.11;76.63;95200.63;5115749;28;973;-46
2021/12/25 07:24:35;;;;;;;;;;;;;;;1.25;76.29;95205.81;5115970;28;995;-47
2021/12/25 07:27:05;;;;;;;;;;;;;;;1.49;75.46;95202.47;5115912;28;1067;-46
2021/12/25 07:29:31;;;;;;;;;;;;;;;1.44;76.04;95202.78;5115762;28;1190;-47
2021/12/25 07:31:57;;;;;;;;;;;;;;;1.39;76.50;95207.50;5115466;28;1067;-47
2021/12/25 07:34:24;;;;;;;;;;;;;;;1.51;76.20;95196.13;5115383;28;1906;-46
2021/12/25 07:36:50;;;;;;;;;;;;;;;1.82;75.35;95198.44;5115666;28;1063;-47
2021/12/25 07:39:16;;;;;;;;;;;;;;;1.96;75.25;95195.69;5115545;28;1008;-47
2021/12/25 07:41:42;;;;;;;;;;;;;;;2.06;74.38;95199.34;5115306;28;1032;-47
2021/12/25 07:44:09;;;;;;;;;;;;;;;1.98;74.63;95201.72;5115414;28;1955;-47
2021/12/25 07:46:35;;;;;;;;;;;;;;;1.99;74.55;95198.09;5115291;28;987;-47
2021/12/25 07:49:03;;;;;;;;;;;;;;;1.88;74.69;95196.22;5115380;28;969;-47
2021/12/25 07:51:30;;;;;;;;;;;;;;;1.90;75.50;95209.31;5115386;28;1067;-47
2021/12/25 07:53:56;;;;;;;;;;;;;;;1.74;76.20;95210.34;5114406;28;1291;-46
2021/12/25 07:56:26;;;;;;;;;;;;;;;1.75;76.15;95216.50;5114687;28;1902;-45
2021/12/25 07:58:52;;;;;;;;;;;;;;;1.81;76.72;95213.44;5115235;28;972;-46
2021/12/25 08:01:19;;;;;;;;;;;;;;;2.01;76.12;95212.06;5114926;28;1098;-45
2021/12/25 08:03:45;;;;;;;;;;;;;;;2.07;76.53;95211.59;5115138;28;1031;-45
2021/12/25 08:06:11;;;;;;;;;;;;;;;2.05;76.66;95210.00;5115105;28;1116;-45
2021/12/25 08:08:37;;;;;;;;;;;;;;;2.14;76.42;95219.91;5115196;28;1040;-46
2021/12/25 08:11:03;;;;;;;;;;;;;;;2.01;76.33;95219.97;5114634;28;1148;-46
2021/12/25 08:13:29;;;;;;;;;;;;;;;1.95;76.98;95217.72;5114964;28;1115;-47
2021/12/25 08:15:56;;;;;;;;;;;;;;;1.97;77.05;95204.44;5114493;28;1913;-46
2021/12/25 08:18:22;;;;;;;;;;;;;;;2.19;75.84;95217.81;5114552;28;1027;-45
2021/12/25 08:20:48;;;;;;;;;;;;;;;2.14;76.14;95209.38;5114787;28;1019;-46
2021/12/25 08:23:14;;;;;;;;;;;;;;;2.39;75.65;95224.31;5114559;28;1023;-45
2021/12/25 08:25:40;;;;;;;;;;;;;;;2.59;75.44;95227.31;5114880;28;976;-45
2021/12/25 08:28:06;;;;;;;;;;;;;;;2.62;74.98;95224.44;5114317;28;1104;-46
2021/12/25 08:30:33;;;;;;;;;;;;;;;2.68;74.44;95235.41;5114508;28;1012;-46
2021/12/25 08:33:00;;;;;;;;;;;;;;;2.66;74.60;95218.84;5114172;28;1040;-45
2021/12/25 08:35:27;;;;;;;;;;;;;;;2.79;73.81;95220.56;5114320;28;1984;-45
2021/12/25 08:37:53;;;;;;;;;;;;;;;3.00;73.17;95216.38;5114141;27;1083;-46
2021/12/25 08:40:20;;;;;;;;;;;;;;;3.09;72.89;95223.63;5114982;28;1108;-46
2021/12/25 08:42:52;;;;;;;;;;;;;;;3.22;72.91;95220.88;5114069;28;1019;-47
2021/12/25 08:47:56;;;;;;;;;;;;;;;3.93;71.08;95226.13;5114284;28;968;-47
2021/12/25 08:50:22;;;;;;;;;;;;;;;3.97;70.88;95211.69;5114386;28;1054;-46
2021/12/25 08:52:49;;;;;;;;;;;;;;;4.26;69.57;95211.22;5113930;28;1217;-46
2021/12/25 08:55:15;;;;;;;;;;;;;;;4.55;69.43;95193.00;5114312;28;1987;-47
2021/12/25 08:57:41;;;;;;;;;;;;;;;4.55;68.57;95192.16;5114218;28;1060;-47
2021/12/25 09:00:08;;;;;;;;;;;;;;;4.74;67.95;95191.50;5113977;28;1127;-47
2021/12/25 09:02:34;;;;;;;;;;;;;;;4.72;68.75;95196.09;5113826;28;1012;-47
2021/12/25 09:05:01;;;;;;;;;;;;;;;4.73;68.68;95201.28;5113955;28;1026;-47
2021/12/25 09:07:27;;;;;;;;;;;;;;;4.86;68.87;95190.53;5113639;28;1268;-47
2021/12/25 09:09:53;;;;;;;;;;;;;;;5.18;67.97;95184.38;5114039;28;1071;-46
2021/12/25 09:12:21;;;;;;;;;;;;;;;4.96;68.83;95180.84;5113966;28;1145;-47
2021/12/25 09:14:47;;;;;;;;;;;;;;;5.15;68.75;95180.16;5113426;28;1977;-47
2021/12/25 09:17:14;;;;;;;;;;;;;;;5.43;67.66;95177.88;5113960;28;1055;-47
2021/12/25 09:19:41;;;;;;;;;;;;;;;5.33;67.83;95166.34;5113707;28;1027;-46
2021/12/25 09:22:09;;;;;;;;;;;;;;;5.46;67.36;95170.50;5112498;28;937;-46
2021/12/25 09:24:36;;;;;;;;;;;;;;;5.14;67.83;95159.94;5114071;28;1014;-46
2021/12/25 09:27:02;;;;;;;;;;;;;;;5.19;67.37;95160.38;5113610;28;1028;-46
2021/12/25 09:29:29;;;;;;;;;;;;;;;5.28;67.32;95156.13;5113990;28;1003;-46
2021/12/25 09:31:55;;;;;;;;;;;;;;;5.37;66.79;95155.38;5113821;28;984;-46
2021/12/25 09:34:21;;;;;;;;;;;;;;;5.58;65.92;95157.19;5113401;28;1901;-46
2021/12/25 09:36:47;;;;;;;;;;;;;;;5.96;65.22;95148.59;5113762;28;991;-46
2021/12/25 09:39:13;;;;;;;;;;;;;;;7.13;62.23;95142.69;5113505;28;999;-46
2021/12/25 09:41:39;;;;;;;;;;;;;;;7.58;59.77;95136.78;5113622;28;1019;-47
2021/12/25 09:44:06;;;;;;;;;;;;;;;7.94;58.42;95134.31;5113243;28;1099;-46
2021/12/25 09:46:32;;;;;;;;;;;;;;;8.56;57.37;95126.63;5113835;28;978;-47
2021/12/25 09:48:59;;;;;;;;;;;;;;;9.54;54.22;95138.22;5113415;28;1030;-47
2021/12/25 09:51:25;;;;;;;;;;;;;;;10.47;51.56;95136.78;5113530;28;1099;-47
2021/12/25 09:53:55;;;;;;;;;;;;;;;11.98;48.15;95132.16;5113283;28;1872;-47
2021/12/25 09:56:22;;;;;;;;;;;;;;;13.18;44.67;95123.94;5113396;28;1906;-48
2021/12/25 09:58:48;;;;;;;;;;;;;;;12.88;45.18;95120.28;5113209;28;1144;-47
2021/12/25 10:01:30;;;;;;;;;;;;;;;12.43;46.11;95116.47;5113452;28;1099;-47
2021/12/25 10:03:57;;;;;;;;;;;;;;;14.42;42.38;95118.38;5113459;28;984;-47
2021/12/25 10:06:33;;;;;;;;;;;;;;;17.33;36.57;95116.72;5113564;28;1071;-48
2021/12/25 10:09:24;;;;;;;;;;;;;;;18.35;34.53;95112.03;5113235;28;1062;-46
2021/12/25 10:12:08;;;;;;;;;;;;;;;17.04;35.38;95099.78;5103570;28;1361;-46
2021/12/25 10:14:35;;;;;;;;;;;;;;;13.21;42.94;95095.94;5112869;28;1989;-46
2021/12/25 10:17:22;;;;;;;;;;;;;;;11.74;47.28;95103.53;5113190;28;1066;-45
2021/12/25 10:20:08;;;;;;;;;;;;;;;11.12;48.45;95096.03;5117204;28;988;-44
2021/12/25 10:22:54;;;;;;;;;;;;;;;9.89;51.22;95088.41;5117240;27;996;-44
2021/12/25 10:25:20;;;;;;;;;;;;;;;11.02;49.43;95100.69;5116978;28;1051;-42
2021/12/25 10:27:54;;;;;;;;;;;;;;;13.36;43.70;95096.84;5116966;28;1022;-44
2021/12/25 10:30:21;;;;;;;;;;;;;;;18.25;34.46;95093.50;5116796;28;1100;-44
2021/12/25 10:32:48;;;;;;;;;;;;;;;19.61;31.94;95101.75;5117001;28;1067;-45
2021/12/25 10:35:19;;;;;;;;;;;;;;;20.75;30.09;95090.81;5116559;28;1902;-45
2021/12/25 10:37:48;;;;;;;;;;;;;;;17.63;33.85;95083.94;5116996;28;1038;-45
2021/12/25 10:40:27;;;;;;;;;;;;;;;14.47;39.76;95077.44;5116488;28;1016;-44
2021/12/25 10:42:57;;;;;;;;;;;;;;;14.24;41.27;95073.81;5116634;28;1003;-44
2021/12/25 10:45:26;;;;;;;;;;;;;;;14.89;39.37;95073.22;5116687;28;1059;-44
2021/12/25 10:47:59;;;;;;;;;;;;;;;18.02;34.13;95057.94;5116587;28;985;-45
2021/12/25 10:50:25;;;;;;;;;;;;;;;21.18;29.17;95058.09;5116374;28;1094;-44
2021/12/25 10:52:51;;;;;;;;;;;;;;;22.32;27.12;95059.94;5116458;28;1060;-44
2021/12/25 10:55:23;;;;;;;;;;;;;;;22.15;27.04;95048.06;5116115;28;1959;-45
2021/12/25 10:57:49;;;;;;;;;;;;;;;22.40;27.16;95051.44;5116325;28;1082;-45
2021/12/25 11:00:21;;;;;;;;;;;;;;;22.06;27.33;95042.13;5116342;28;987;-44
2021/12/25 11:03:02;;;;;;;;;;;;;;;20.51;29.48;95035.44;5116419;28;1093;-45
2021/12/25 11:05:29;;;;;;;;;;;;;;;17.69;33.71;95027.13;5116303;27;1035;-44
2021/12/25 11:08:01;;;;;;;;;;;;;;;15.57;37.95;95027.91;5116008;28;1073;-44
2021/12/25 11:10:30;;;;;;;;;;;;;;;14.38;40.72;95020.22;5116204;28;964;-44
2021/12/25 11:12:56;;;;;;;;;;;;;;;13.47;42.59;95018.53;5116180;28;1208;-44
2021/12/25 11:15:24;;;;;;;;;;;;;;;12.97;44.30;95014.56;5115686;27;1909;-44
2021/12/25 11:17:53;;;;;;;;;;;;;;;12.65;44.78;95002.19;5115897;28;1051;-44
2021/12/25 11:20:26;;;;;;;;;;;;;;;12.35;45.39;94999.38;5115946;28;1067;-44
2021/12/25 11:22:54;;;;;;;;;;;;;;;11.96;46.27;94992.16;5116102;28;920;-45
2021/12/25 11:25:23;;;;;;;;;;;;;;;11.32;47.63;94993.00;5115681;28;1991;-45
2021/12/25 11:27:50;;;;;;;;;;;;;;;11.12;47.87;94997.03;5115717;28;1032;-45
2021/12/25 11:30:18;;;;;;;;;;;;;;;11.39;48.48;95000.34;5115651;27;953;-45
2021/12/25 11:32:45;;;;;;;;;;;;;;;11.40;47.76;94999.31;5115541;28;1023;-44
2021/12/25 11:35:15;;;;;;;;;;;;;;;11.39;48.67;95001.16;5115428;28;1898;-44
2021/12/25 11:37:42;;;;;;;;;;;;;;;11.21;48.76;94997.84;5115922;28;1067;-45
2021/12/25 11:40:09;;;;;;;;;;;;;;;10.99;48.96;95002.88;5115430;28;1051;-44
2021/12/25 11:42:40;;;;;;;;;;;;;;;10.61;50.43;94999.00;5115578;28;995;-45
2021/12/25 11:45:10;;;;;;;;;;;;;;;10.56;50.12;94986.13;5115554;28;1077;-44
2021/12/25 11:47:40;;;;;;;;;;;;;;;10.45;51.06;94984.63;5115713;28;991;-45
2021/12/25 11:50:13;;;;;;;;;;;;;;;10.38;51.83;94990.75;5115433;28;1076;-44
2021/12/25 11:52:55;;;;;;;;;;;;;;;10.28;52.15;94985.53;5115621;28;989;-44
2021/12/25 11:55:36;;;;;;;;;;;;;;;10.15;52.15;94973.50;5115100;28;1967;-44
2021/12/25 12:00:50;;;;;;;;;;;;;;;10.08;52.50;94980.47;5114931;28;1027;-44
2021/12/25 12:03:35;;;;;;;;;;;;;;;10.21;52.10;94974.66;5115260;28;1122;-44
2021/12/25 12:06:01;;;;;;;;;;;;;;;9.96;52.52;94974.59;5115206;28;1114;-44
2021/12/25 12:08:27;;;;;;;;;;;;;;;9.84;52.95;94962.50;5114911;28;1104;-44
2021/12/25 12:10:57;;;;;;;;;;;;;;;9.80;53.22;94971.03;5114646;28;1153;-44
2021/12/25 12:13:28;;;;;;;;;;;;;;;9.81;52.48;94973.53;5115015;28;1273;-46
2021/12/25 12:15:56;;;;;;;;;;;;;;;9.93;53.02;94972.25;5114553;28;1977;-45
2021/12/25 12:18:25;;;;;;;;;;;;;;;9.97;54.05;94962.06;5114961;28;1031;-45
2021/12/25 12:20:52;;;;;;;;;;;;;;;10.06;54.33;94970.97;5114593;28;977;-45
2021/12/25 12:26:35;;;;;;;;;;;;;;;10.18;54.27;94960.81;5114783;28;1028;-45
2021/12/25 12:29:01;;;;;;;;;;;;;;;10.07;54.78;94959.25;5114942;28;1255;-45
2021/12/25 12:31:43;;;;;;;;;;;;;;;10.02;54.24;94948.25;5114504;28;980;-45
2021/12/25 12:34:28;;;;;;;;;;;;;;;9.95;55.19;94937.38;5114792;28;1044;-45
2021/12/25 12:37:13;;;;;;;;;;;;;;;9.90;53.48;94945.00;5114431;28;1062;-45
2021/12/25 12:39:55;;;;;;;;;;;;;;;9.87;53.97;94946.19;5114303;28;993;-45
2021/12/25 12:42:45;;;;;;;;;;;;;;;9.82;56.31;94950.34;5114213;28;994;-45
2021/12/25 12:45:14;;;;;;;;;;;;;;;9.79;55.38;94948.84;5114252;28;1098;-45
2021/12/25 12:47:41;;;;;;;;;;;;;;;9.73;55.32;94944.97;5114446;28;991;-45
2021/12/25 12:50:11;;;;;;;;;;;;;;;9.71;54.88;94938.09;5114305;28;954;-45
2021/12/25 12:52:39;;;;;;;;;;;;;;;9.67;56.88;94945.59;5114191;28;1032;-45
2021/12/25 12:55:08;;;;;;;;;;;;;;;9.59;56.73;94948.25;5114170;28;1985;-45
2021/12/25 12:57:39;;;;;;;;;;;;;;;9.56;55.07;94937.88;5114343;28;1024;-46
2021/12/25 13:00:19;;;;;;;;;;;;;;;9.48;56.49;94941.34;5114043;28;1020;-45
2021/12/25 13:02:47;;;;;;;;;;;;;;;9.33;56.46;94941.13;5114425;28;984;-45
2021/12/25 13:05:14;;;;;;;;;;;;;;;9.24;57.15;94949.22;5113976;28;1087;-45
2021/12/25 13:07:43;;;;;;;;;;;;;;;9.15;57.71;94937.69;5114137;28;1147;-45
2021/12/25 13:10:33;;;;;;;;;;;;;;;9.11;57.72;94947.00;5113972;28;1078;-45
2021/12/25 13:13:11;;;;;;;;;;;;;;;9.06;57.08;94946.63;5114097;28;1157;-45
2021/12/25 13:15:38;;;;;;;;;;;;;;;9.06;58.60;94952.78;5113489;28;1941;-45
2021/12/25 13:18:05;;;;;;;;;;;;;;;9.01;57.15;94949.75;5114144;28;953;-45
2021/12/25 13:20:36;;;;;;;;;;;;;;;8.95;58.60;94955.69;5113905;28;1028;-44
2021/12/25 13:23:03;;;;;;;;;;;;;;;8.88;59.60;94949.31;5113803;28;1019;-45
2021/12/25 13:25:30;;;;;;;;;;;;;;;8.79;59.90;94946.59;5114009;28;947;-45
2021/12/25 13:27:57;;;;;;;;;;;;;;;8.77;58.08;94950.41;5113683;28;1071;-44
2021/12/25 13:30:23;;;;;;;;;;;;;;;8.71;58.27;94941.22;5113657;28;2027;-45
2021/12/25 13:32:49;;;;;;;;;;;;;;;8.65;60.45;94936.50;5113684;28;988;-45
2021/12/25 13:35:16;;;;;;;;;;;;;;;8.55;62.29;94930.41;5113720;28;1898;-45
2021/12/25 13:37:42;;;;;;;;;;;;;;;8.55;60.75;94935.75;5113452;28;1044;-45
2021/12/25 13:40:09;;;;;;;;;;;;;;;8.54;59.51;94934.09;5113678;28;1019;-45
2021/12/25 13:42:35;;;;;;;;;;;;;;;8.49;59.69;94937.19;5113733;28;973;-45
2021/12/25 13:45:01;;;;;;;;;;;;;;;8.43;60.58;94931.66;5113702;28;964;-45
2021/12/25 13:47:29;;;;;;;;;;;;;;;8.30;61.72;94929.34;5113811;28;1195;-45
2021/12/25 13:50:00;;;;;;;;;;;;;;;8.06;61.74;94927.25;5113787;28;1000;-45
2021/12/25 13:52:28;;;;;;;;;;;;;;;7.70;62.41;94932.53;5115641;28;1107;-45
2021/12/25 13:54:54;;;;;;;;;;;;;;;7.48;63.17;94933.78;5117493;28;1910;-45
2021/12/25 13:57:21;;;;;;;;;;;;;;;7.37;63.55;94934.81;5117373;28;1204;-45
2021/12/25 13:59:51;;;;;;;;;;;;;;;7.18;63.82;94941.03;5117405;28;1094;-46
2021/12/25 14:02:17;;;;;;;;;;;;;;;7.10;63.67;94932.97;5117785;28;995;-45
2021/12/25 14:04:45;;;;;;;;;;;;;;;7.18;63.43;94941.03;5117544;28;1055;-46
2021/12/25 14:07:13;;;;;;;;;;;;;;;7.24;63.45;94941.28;5117375;28;980;-46
2021/12/25 14:09:39;;;;;;;;;;;;;;;6.96;64.25;94935.09;5117321;28;1090;-45
2021/12/25 14:12:06;;;;;;;;;;;;;;;6.88;64.29;94937.63;5117209;28;1284;-46
2021/12/25 14:14:33;;;;;;;;;;;;;;;6.96;64.64;94942.22;5116845;28;1968;-46
2021/12/25 14:16:59;;;;;;;;;;;;;;;6.92;64.44;94946.16;5117246;28;1047;-46
2021/12/25 14:19:27;;;;;;;;;;;;;;;6.85;64.38;94935.28;5117413;28;979;-46
2021/12/25 14:21:55;;;;;;;;;;;;;;;6.72;64.82;94940.88;5116900;28;980;-45
2021/12/25 14:24:21;;;;;;;;;;;;;;;6.61;65.17;94936.56;5117295;28;1010;-46
2021/12/25 14:26:47;;;;;;;;;;;;;;;6.69;64.79;94933.19;5117099;28;1003;-46
2021/12/25 14:29:21;;;;;;;;;;;;;;;6.60;64.96;94942.00;5117167;28;979;-46
2021/12/25 14:31:47;;;;;;;;;;;;;;;6.52;65.07;94940.06;5116885;28;986;-46
2021/12/25 14:34:13;;;;;;;;;;;;;;;6.54;65.16;94934.59;5116987;28;1067;-44